Terminal Aerodrome Forecast
Issued by NWS Cleveland, OH

Home | Current Version | Previous Version | Graphics & Text | Print | Product List | Glossary On
Versions: 1 2 3 4 5 6 7 8 9 10 11 12 13 14 15 16 17 18 19
000
FTUS41 KCLE 291000 AAA
TAFTOL
TAF AMD
KTOL 291024Z 2910/3006 15008KT P6SM SCT050 OVC100
      TEMPO 2910/2913 -FZRA SCT012 OVC050
     FM291300 19012G18KT 4SM -FZRA BR OVC012
      TEMPO 2914/2917 2SM -FZRAPL BR OVC008
     FM291700 23010KT 1 1/2SM -RA BR OVC008
     FM292000 28010G20KT 3SM -SN BR BKN008 OVC015
     FM300400 29015G25KT P6SM SCT015 BKN025=

USA.gov is the U.S. government's official web portal to all federal, state and local government web resources and services.